Time;durP1;ratioP1;P1;durP2;ratioP2;P2;SDS_P1;SDS_P2;PMS_P1;PMS_P2;Temp;Humidity;BMP_temperature;BMP_pressure;BME280_temperature;BME280_humidity;BME280_pressure;Samples;Min_cycle;Max_cycle;Signal;HPM_P1;HPM_P2
2023/02/05 00:02:07;;;;;;;14.80;10.50;;;;;;;5.08;94.47;97278.44;5086229;28;20024;-70
2023/02/05 00:04:33;;;;;;;4.78;4.38;;;;;;;5.06;94.44;97288.09;5083166;28;20076;-69
2023/02/05 00:06:59;;;;;;;5.65;5.15;;;;;;;5.08;94.20;97291.47;5102306;28;20032;-63
2023/02/05 00:09:24;;;;;;;6.63;5.95;;;;;;;5.08;94.41;97283.66;5083406;28;20035;-63
2023/02/05 00:11:49;;;;;;;13.18;9.60;;;;;;;5.05;94.71;97285.53;5087182;28;20513;-64
2023/02/05 00:14:15;;;;;;;6.13;5.35;;;;;;;5.06;94.24;97285.50;5086972;28;20549;-63
2023/02/05 00:16:40;;;;;;;5.53;5.07;;;;;;;5.03;94.71;97288.25;5085171;28;20051;-64
2023/02/05 00:19:05;;;;;;;5.50;4.97;;;;;;;5.04;94.35;97289.94;5089148;28;20016;-63
2023/02/05 00:21:31;;;;;;;6.63;5.22;;;;;;;4.98;94.66;97291.03;5082954;28;20020;-63
2023/02/05 00:23:56;;;;;;;7.63;6.28;;;;;;;5.08;94.04;97283.66;5085621;28;20110;-64
2023/02/05 00:26:21;;;;;;;16.88;11.27;;;;;;;5.05;94.19;97291.63;5071079;28;20504;-63
2023/02/05 00:28:47;;;;;;;5.97;5.43;;;;;;;5.10;94.37;97294.88;5087192;28;20072;-62
2023/02/05 00:31:16;;;;;;;5.90;5.30;;;;;;;5.02;94.42;97295.22;5088618;28;20035;-64
2023/02/05 00:33:42;;;;;;;5.38;5.03;;;;;;;5.11;93.76;97301.78;5085830;28;20107;-63
2023/02/05 00:36:09;;;;;;;5.60;5.20;;;;;;;5.03;94.17;97303.91;5087359;28;20513;-63
2023/02/05 00:38:35;;;;;;;5.10;4.63;;;;;;;4.98;94.64;97311.94;5086245;28;20489;-64
2023/02/05 00:41:01;;;;;;;5.47;4.95;;;;;;;5.05;94.66;97309.03;5085336;28;20069;-64
2023/02/05 00:43:26;;;;;;;9.18;7.70;;;;;;;4.90;95.16;97302.72;5081046;28;20052;-64
2023/02/05 00:45:51;;;;;;;8.60;6.07;;;;;;;4.81;95.39;97304.84;5083380;28;20093;-63
2023/02/05 00:48:17;;;;;;;5.75;5.32;;;;;;;5.01;94.58;97308.34;5084689;28;20482;-60
2023/02/05 00:50:42;;;;;;;5.85;5.25;;;;;;;4.87;95.50;97314.19;5079042;28;20616;-60
2023/02/05 00:53:07;;;;;;;11.52;8.55;;;;;;;4.85;95.49;97315.97;5088103;28;20440;-60
2023/02/05 00:55:33;;;;;;;7.05;6.55;;;;;;;4.96;94.87;97324.19;5077392;28;20020;-60
2023/02/05 00:58:00;;;;;;;28.70;16.50;;;;;;;4.83;95.57;97323.03;5086780;28;20028;-61
2023/02/05 01:00:26;;;;;;;36.95;18.90;;;;;;;4.81;95.77;97310.06;5086299;28;20095;-61
2023/02/05 01:02:52;;;;;;;7.00;6.07;;;;;;;4.93;94.54;97318.25;5095850;28;20106;-60
2023/02/05 01:05:18;;;;;;;5.10;4.78;;;;;;;4.97;94.09;97328.50;5087881;28;20024;-62
2023/02/05 01:07:43;;;;;;;5.93;5.43;;;;;;;4.99;93.96;97329.28;5085971;28;20036;-69
2023/02/05 01:10:09;;;;;;;5.20;4.90;;;;;;;4.92;94.42;97327.00;5081028;28;20473;-61
2023/02/05 01:12:34;;;;;;;52.35;24.25;;;;;;;4.87;94.75;97330.66;5090297;28;20483;-61
2023/02/05 01:15:01;;;;;;;10.25;7.00;;;;;;;4.88;94.52;97327.13;5086723;28;20055;-60
2023/02/05 01:17:26;;;;;;;9.10;7.63;;;;;;;4.86;94.42;97328.09;5080384;28;20034;-60
2023/02/05 01:19:52;;;;;;;66.53;30.80;;;;;;;4.87;93.88;97327.22;5083172;28;20028;-60
2023/02/05 01:22:17;;;;;;;10.98;8.93;;;;;;;4.90;93.61;97329.69;5086022;28;20582;-60
2023/02/05 01:24:43;;;;;;;9.18;7.82;;;;;;;4.85;94.13;97327.28;5076518;28;20024;-69
2023/02/05 01:27:08;;;;;;;10.75;8.60;;;;;;;4.78;94.27;97322.38;5042200;28;20028;-64
2023/02/05 01:29:33;;;;;;;21.95;13.30;;;;;;;4.83;94.52;97323.03;5081861;28;20027;-63
2023/02/05 01:31:59;;;;;;;6.63;6.03;;;;;;;5.03;93.11;97330.00;5084229;28;20531;-63
2023/02/05 01:34:24;;;;;;;23.13;13.52;;;;;;;4.80;93.52;97333.59;5086967;28;20425;-64
2023/02/05 01:36:49;;;;;;;5.72;5.22;;;;;;;4.78;93.91;97346.72;5078295;28;20493;-63
2023/02/05 01:39:15;;;;;;;20.80;14.88;;;;;;;4.74;94.32;97345.13;5086858;28;20482;-64
2023/02/05 01:41:43;;;;;;;5.63;5.22;;;;;;;4.99;91.25;97351.94;5083492;28;20044;-63
2023/02/05 01:44:13;;;;;;;13.68;8.18;;;;;;;4.84;92.99;97348.22;5082959;28;20050;-68
2023/02/05 01:46:44;;;;;;;36.42;20.88;;;;;;;4.91;92.99;97348.78;5086382;28;20070;-60
2023/02/05 01:49:34;;;;;;;52.55;27.60;;;;;;;4.73;93.45;97348.66;5083326;28;20028;-60
2023/02/05 01:52:05;;;;;;;7.50;6.80;;;;;;;4.68;93.81;97341.06;5085686;28;20020;-60
2023/02/05 01:54:34;;;;;;;5.88;5.47;;;;;;;4.62;94.30;97338.69;5075663;28;20542;-60
2023/02/05 01:57:15;;;;;;;9.45;7.93;;;;;;;4.63;94.56;97339.53;5089279;28;20031;-60
2023/02/05 01:59:42;;;;;;;6.20;5.65;;;;;;;4.58;94.95;97339.72;5081766;28;20749;-60
2023/02/05 02:02:09;;;;;;;6.93;6.28;;;;;;;4.50;95.17;97339.22;5096577;28;20509;-61
2023/02/05 02:04:42;;;;;;;6.93;6.30;;;;;;;4.62;94.36;97340.47;5094538;28;20024;-69
2023/02/05 02:07:11;;;;;;;10.23;8.45;;;;;;;4.64;93.65;97336.88;5089619;28;20028;-60
2023/02/05 02:09:38;;;;;;;15.27;9.77;;;;;;;4.63;93.78;97347.38;5089339;28;20586;-59
2023/02/05 02:12:04;;;;;;;9.73;7.57;;;;;;;4.62;93.61;97345.66;5089597;28;20077;-59
2023/02/05 02:14:32;;;;;;;64.35;32.85;;;;;;;4.57;93.98;97344.13;5089119;28;20095;-60
2023/02/05 02:17:00;;;;;;;31.25;16.55;;;;;;;4.57;93.28;97351.06;5089593;28;20031;-60
2023/02/05 02:19:42;;;;;;;25.85;15.63;;;;;;;4.55;93.36;97350.28;5089107;28;20375;-60
2023/02/05 02:22:41;;;;;;;7.75;6.95;;;;;;;4.62;92.19;97341.28;5089613;28;20121;-69
2023/02/05 02:25:28;;;;;;;5.75;5.30;;;;;;;4.83;90.19;97343.91;5052995;28;20533;-68
2023/02/05 02:28:03;;;;;;;5.20;4.80;;;;;;;4.88;90.21;97348.03;5089132;28;20039;-69
2023/02/05 02:30:39;;;;;;;6.45;5.85;;;;;;;4.78;89.45;97345.88;5089445;28;20035;-69
2023/02/05 02:33:21;;;;;;;6.45;5.85;;;;;;;4.70;90.66;97354.00;5089115;28;20508;-69
2023/02/05 02:36:25;;;;;;;6.78;6.18;;;;;;;4.50;91.79;97347.88;5089710;28;20055;-69
2023/02/05 02:39:00;;;;;;;7.35;6.15;;;;;;;4.54;91.58;97344.25;5089203;28;20027;-69
2023/02/05 02:41:30;;;;;;;6.00;5.60;;;;;;;4.56;90.79;97352.00;5088979;28;20051;-69
2023/02/05 02:44:25;;;;;;;5.50;5.10;;;;;;;4.62;90.20;97350.88;5089138;28;20036;-62
2023/02/05 02:46:55;;;;;;;5.53;5.13;;;;;;;4.91;88.91;97356.63;5054861;28;20047;-69
2023/02/05 02:49:31;;;;;;;6.00;5.40;;;;;;;4.75;88.60;97356.44;5088727;28;20075;-69
2023/02/05 02:52:00;;;;;;;5.57;5.18;;;;;;;4.64;89.76;97351.66;5091522;28;20030;-69
2023/02/05 02:54:27;;;;;;;5.65;5.25;;;;;;;4.48;91.22;97351.47;5092741;28;20443;-69
2023/02/05 02:56:54;;;;;;;8.95;7.60;;;;;;;4.44;91.32;97355.94;5093021;28;20024;-69
2023/02/05 02:59:24;;;;;;;7.60;6.57;;;;;;;4.37;92.03;97360.56;5093104;28;20028;-69
2023/02/05 03:01:55;;;;;;;6.28;5.78;;;;;;;4.42;92.67;97363.00;5097726;28;20042;-68
2023/02/05 03:04:29;;;;;;;6.50;5.90;;;;;;;4.37;91.59;97363.16;5082149;28;20020;-63
2023/02/05 03:07:06;;;;;;;6.80;6.15;;;;;;;4.48;90.99;97372.34;5080305;28;20031;-63
2023/02/05 03:09:57;;;;;;;7.15;6.00;;;;;;;4.57;90.16;97364.13;5092570;28;20080;-63
2023/02/05 03:12:23;;;;;;;7.07;6.40;;;;;;;4.53;89.67;97368.63;5092746;28;20024;-64
2023/02/05 03:14:50;;;;;;;6.80;6.20;;;;;;;4.40;90.27;97372.63;5092744;28;20024;-63
2023/02/05 03:17:18;;;;;;;7.05;6.45;;;;;;;4.36;90.33;97371.06;5092434;28;20024;-63
2023/02/05 03:19:52;;;;;;;8.30;7.50;;;;;;;4.34;91.03;97365.91;5092153;28;20024;-64
2023/02/05 03:22:18;;;;;;;7.93;6.95;;;;;;;4.26;91.24;97350.56;5092385;28;20089;-63
2023/02/05 03:24:43;;;;;;;7.25;6.30;;;;;;;4.28;90.74;97359.19;5092537;28;20051;-68
2023/02/05 03:27:09;;;;;;;6.90;6.22;;;;;;;4.25;91.35;97351.47;5092538;28;20490;-69
2023/02/05 03:29:38;;;;;;;7.70;7.00;;;;;;;4.16;92.20;97359.69;5092165;28;20397;-69
2023/02/05 03:32:03;;;;;;;30.05;18.40;;;;;;;4.12;92.60;97348.53;5092673;28;20107;-69
2023/02/05 03:34:35;;;;;;;6.85;6.15;;;;;;;4.30;91.99;97346.91;5091969;28;20112;-69
2023/02/05 03:37:28;;;;;;;6.57;6.00;;;;;;;4.27;91.14;97351.44;5092330;28;20531;-69
2023/02/05 03:40:18;;;;;;;8.75;7.05;;;;;;;4.12;92.54;97352.91;5092099;28;20524;-62
2023/02/05 03:43:24;;;;;;;9.65;8.43;;;;;;;4.13;92.64;97365.84;5060455;28;20024;-69
2023/02/05 03:45:52;;;;;;;7.82;7.00;;;;;;;4.10;92.62;97358.16;5074176;28;20444;-69
2023/02/05 03:48:20;;;;;;;8.90;6.90;;;;;;;4.11;92.79;97354.66;5092195;28;20034;-69
2023/02/05 03:51:21;;;;;;;6.57;5.97;;;;;;;4.15;92.27;97348.38;5091595;28;20111;-69
2023/02/05 03:53:47;;;;;;;9.15;6.95;;;;;;;4.05;93.36;97354.03;5029102;28;20503;-69
2023/02/05 03:56:22;;;;;;;13.25;10.32;;;;;;;3.98;93.81;97351.69;5070330;28;20058;-69
2023/02/05 03:58:52;;;;;;;8.85;7.47;;;;;;;4.01;93.88;97340.28;5091608;28;20472;-63
2023/02/05 04:01:19;;;;;;;9.38;7.40;;;;;;;4.03;93.34;97342.81;5091961;28;20051;-63
2023/02/05 04:03:44;;;;;;;7.72;7.13;;;;;;;4.03;93.28;97342.81;5102973;28;20026;-61
2023/02/05 04:06:10;;;;;;;7.40;6.70;;;;;;;3.96;93.89;97357.84;5073264;28;20114;-62
2023/02/05 04:08:36;;;;;;;22.65;13.32;;;;;;;3.94;93.94;97351.84;5088755;28;20086;-61
2023/02/05 04:11:01;;;;;;;7.25;6.57;;;;;;;4.01;93.63;97350.72;5071488;28;20036;-61
2023/02/05 04:13:29;;;;;;;7.03;6.43;;;;;;;4.20;92.01;97344.75;5087493;28;20501;-61
2023/02/05 04:15:54;;;;;;;7.57;6.82;;;;;;;4.12;91.87;97345.09;5090236;28;20024;-61
2023/02/05 04:18:20;;;;;;;7.60;6.97;;;;;;;4.19;91.70;97354.34;5090064;28;20016;-60
2023/02/05 04:20:45;;;;;;;7.05;6.43;;;;;;;4.18;91.42;97352.66;5089848;28;20470;-60
2023/02/05 04:23:11;;;;;;;21.27;13.63;;;;;;;4.04;92.71;97363.63;5070739;28;20047;-68
2023/02/05 04:25:37;;;;;;;17.23;10.90;;;;;;;3.98;93.09;97367.31;5089366;28;20024;-68
2023/02/05 04:28:04;;;;;;;25.00;13.93;;;;;;;3.96;93.23;97379.56;5089348;28;20074;-68
2023/02/05 04:30:30;;;;;;;8.45;7.38;;;;;;;3.96;93.24;97374.34;5089479;28;20506;-70
2023/02/05 04:32:55;;;;;;;9.20;7.95;;;;;;;3.93;93.45;97377.06;5089576;28;20035;-68
2023/02/05 04:35:20;;;;;;;34.78;18.88;;;;;;;3.93;93.40;97379.69;5089778;28;20081;-68
2023/02/05 04:37:46;;;;;;;27.52;14.25;;;;;;;3.94;93.15;97376.16;5089484;28;20109;-63
2023/02/05 04:40:11;;;;;;;24.48;13.07;;;;;;;3.96;92.88;97371.75;5089627;28;20024;-61
2023/02/05 04:42:37;;;;;;;11.60;9.43;;;;;;;3.94;92.96;97381.38;5090288;28;20027;-61
2023/02/05 04:45:04;;;;;;;14.55;11.50;;;;;;;4.03;92.82;97374.97;5072666;28;20028;-61
2023/02/05 04:47:30;;;;;;;8.27;7.57;;;;;;;4.12;92.06;97377.19;5090626;28;20016;-61
2023/02/05 04:49:56;;;;;;;6.85;6.35;;;;;;;4.08;92.13;97373.00;5091009;28;20024;-62
2023/02/05 04:52:21;;;;;;;7.43;6.72;;;;;;;3.99;93.36;97369.00;5090435;28;20027;-62
2023/02/05 04:54:46;;;;;;;8.30;7.50;;;;;;;3.89;94.19;97362.47;5090413;28;20040;-61
2023/02/05 04:57:12;;;;;;;7.38;6.60;;;;;;;3.84;94.86;97362.63;5090597;28;20107;-60
2023/02/05 04:59:37;;;;;;;8.18;7.47;;;;;;;3.81;94.65;97369.72;5090707;28;20095;-63
2023/02/05 05:02:03;;;;;;;7.90;7.22;;;;;;;3.75;95.26;97367.34;5095627;28;20024;-64
2023/02/05 05:04:28;;;;;;;7.95;7.28;;;;;;;3.79;94.51;97368.94;5090220;28;20031;-63
2023/02/05 05:06:53;;;;;;;7.72;6.97;;;;;;;3.75;94.80;97364.75;5090163;28;20031;-64
2023/02/05 05:09:22;;;;;;;8.20;7.38;;;;;;;3.90;94.37;97371.13;5090458;28;20024;-64
2023/02/05 05:11:51;;;;;;;7.65;6.95;;;;;;;3.81;94.79;97369.72;5090225;28;20128;-64
2023/02/05 05:14:17;;;;;;;8.48;7.20;;;;;;;3.87;94.41;97367.72;5089885;28;20019;-64
2023/02/05 05:16:42;;;;;;;7.25;6.55;;;;;;;3.85;95.19;97366.94;5071958;28;20030;-62
2023/02/05 05:19:07;;;;;;;8.05;6.82;;;;;;;3.77;95.38;97369.00;5090106;28;20106;-62
2023/02/05 05:21:33;;;;;;;8.45;7.07;;;;;;;3.77;95.31;97361.19;5090307;28;20403;-62
2023/02/05 05:23:58;;;;;;;7.45;6.75;;;;;;;3.75;95.62;97367.34;5090077;28;20363;-62
2023/02/05 05:26:23;;;;;;;8.75;7.70;;;;;;;3.73;95.73;97360.44;5089846;28;20071;-61
2023/02/05 05:28:55;;;;;;;8.48;7.75;;;;;;;3.60;96.24;97354.00;5090318;28;20048;-62
2023/02/05 05:31:21;;;;;;;8.90;8.10;;;;;;;3.61;96.34;97353.09;5089867;28;20490;-61
2023/02/05 05:33:46;;;;;;;8.02;7.22;;;;;;;3.72;95.46;97360.50;5089917;28;20016;-62
2023/02/05 05:36:12;;;;;;;11.48;8.13;;;;;;;3.62;96.06;97354.78;5089830;28;20075;-59
2023/02/05 05:38:37;;;;;;;10.18;8.20;;;;;;;3.50;96.98;97356.09;5090295;28;20523;-70
2023/02/05 05:43:48;;;;;;;10.18;8.18;;;;;;;3.46;97.72;97348.47;5089761;28;20151;-70
2023/02/05 05:46:22;;;;;;;8.15;7.45;;;;;;;3.51;97.58;97362.16;5088918;28;20019;-70
2023/02/05 05:48:49;;;;;;;8.63;7.78;;;;;;;3.54;97.31;97351.63;5058211;28;20028;-71
2023/02/05 05:51:15;;;;;;;9.32;8.55;;;;;;;3.57;96.75;97357.56;5105449;28;20016;-70
2023/02/05 05:53:40;;;;;;;10.43;9.35;;;;;;;3.70;95.20;97352.75;5089709;28;20536;-70
2023/02/05 05:56:05;;;;;;;9.48;8.45;;;;;;;3.58;96.22;97363.63;5089915;28;20030;-71
2023/02/05 05:58:31;;;;;;;9.70;8.80;;;;;;;3.44;96.70;97367.59;5089553;28;20020;-60
2023/02/05 06:00:56;;;;;;;10.27;8.70;;;;;;;3.41;97.03;97372.91;5089200;28;20760;-60
2023/02/05 06:03:22;;;;;;;10.30;9.40;;;;;;;3.37;97.34;97371.31;5101805;28;20080;-60
2023/02/05 06:05:48;;;;;;;10.55;9.52;;;;;;;3.30;97.50;97364.66;5089460;28;20103;-60
2023/02/05 06:08:15;;;;;;;11.30;9.98;;;;;;;3.32;97.49;97368.03;5089420;28;20102;-59
2023/02/05 06:10:40;;;;;;;10.98;9.88;;;;;;;3.23;98.21;97373.59;5090060;28;20031;-60
2023/02/05 06:13:05;;;;;;;11.98;10.80;;;;;;;3.31;98.24;97371.56;5089725;28;20035;-63
2023/02/05 06:15:31;;;;;;;12.90;11.60;;;;;;;3.34;96.62;97376.63;5089659;28;20035;-70
2023/02/05 06:17:56;;;;;;;12.55;11.40;;;;;;;3.11;97.83;97373.13;5089239;28;20024;-64
2023/02/05 06:20:22;;;;;;;14.13;12.32;;;;;;;3.05;98.09;97375.94;5089633;28;20173;-63
2023/02/05 06:22:47;;;;;;;13.38;12.02;;;;;;;2.92;99.11;97372.06;5089023;28;20103;-64
2023/02/05 06:25:12;;;;;;;13.25;11.88;;;;;;;2.82;100.00;97380.19;5089325;28;20020;-65
2023/02/05 06:27:37;;;;;;;13.68;12.13;;;;;;;2.77;100.00;97371.69;5093374;28;20027;-64
2023/02/05 06:30:03;;;;;;;12.82;11.50;;;;;;;2.72;100.00;97364.03;5093204;28;20028;-64
2023/02/05 06:32:29;;;;;;;14.25;12.40;;;;;;;2.69;100.00;97371.97;5075422;28;20592;-63
2023/02/05 06:34:54;;;;;;;13.27;11.98;;;;;;;2.68;100.00;97377.19;5092866;28;20035;-63
2023/02/05 06:37:20;;;;;;;12.90;11.75;;;;;;;2.68;100.00;97377.19;5093686;28;20027;-63
2023/02/05 06:39:45;;;;;;;14.00;12.70;;;;;;;2.70;100.00;97372.78;5092699;28;20459;-64
2023/02/05 06:42:10;;;;;;;25.25;18.70;;;;;;;2.74;100.00;97376.16;5093718;28;20055;-63
2023/02/05 06:44:36;;;;;;;13.80;12.40;;;;;;;2.69;100.00;97366.75;5092941;28;20055;-64
2023/02/05 06:47:01;;;;;;;12.57;11.38;;;;;;;2.84;99.64;97361.91;5093211;28;20547;-63
2023/02/05 06:49:27;;;;;;;15.07;11.55;;;;;;;2.91;99.55;97365.16;5093045;28;20482;-64
2023/02/05 06:51:52;;;;;;;12.95;11.40;;;;;;;2.85;99.21;97385.28;5093143;28;20107;-70
2023/02/05 06:54:18;;;;;;;14.05;11.82;;;;;;;2.89;98.81;97380.84;5074707;28;20023;-63
2023/02/05 06:56:43;;;;;;;12.70;11.40;;;;;;;2.92;99.37;97385.06;5092944;28;20405;-71
2023/02/05 06:59:09;;;;;;;12.30;11.10;;;;;;;2.86;100.00;97394.78;5093145;28;20095;-70
2023/02/05 07:01:34;;;;;;;12.23;10.82;;;;;;;2.81;100.00;97396.69;5092601;28;20019;-70
2023/02/05 07:03:59;;;;;;;12.23;10.88;;;;;;;2.87;99.85;97408.63;5092974;28;20020;-70
2023/02/05 07:06:25;;;;;;;12.07;10.88;;;;;;;2.93;99.24;97408.44;5092594;28;20549;-70
2023/02/05 07:08:52;;;;;;;17.30;13.25;;;;;;;2.84;100.00;97416.53;5092727;28;20562;-70
2023/02/05 07:11:18;;;;;;;57.88;31.30;;;;;;;2.78;100.00;97420.22;5092023;28;20066;-63
2023/02/05 07:13:44;;;;;;;28.25;18.48;;;;;;;2.79;100.00;97423.66;5092850;28;20078;-61
2023/02/05 07:16:09;;;;;;;18.50;13.80;;;;;;;2.78;100.00;97414.16;5092381;28;20489;-68
2023/02/05 07:18:35;;;;;;;31.70;19.02;;;;;;;2.75;100.00;97420.28;5092130;28;20454;-68
2023/02/05 07:21:05;;;;;;;16.30;13.70;;;;;;;2.76;100.00;97413.34;5092176;28;20036;-68
2023/02/05 07:23:30;;;;;;;14.77;12.88;;;;;;;2.75;100.00;97419.47;5092416;28;20547;-68
2023/02/05 07:25:55;;;;;;;13.88;12.48;;;;;;;2.79;100.00;97427.13;5069207;28;20024;-68
2023/02/05 07:28:21;;;;;;;36.00;22.98;;;;;;;2.84;100.00;97434.75;5092345;28;20032;-68
2023/02/05 07:30:47;;;;;;;15.52;13.88;;;;;;;2.89;100.00;97437.22;5092563;28;20137;-71
2023/02/05 07:33:12;;;;;;;40.72;21.73;;;;;;;2.89;100.00;97443.28;5092542;28;20020;-63
2023/02/05 07:35:38;;;;;;;16.45;14.95;;;;;;;2.86;100.00;97458.97;5092441;28;20024;-59
2023/02/05 07:38:04;;;;;;;14.07;12.52;;;;;;;2.98;100.00;97462.91;5091882;28;20031;-59
2023/02/05 07:40:30;;;;;;;15.63;13.70;;;;;;;3.14;99.19;97464.09;5092172;28;20058;-60
2023/02/05 07:42:55;;;;;;;18.48;14.68;;;;;;;3.21;98.28;97474.31;5091641;28;20151;-60
2023/02/05 07:45:21;;;;;;;15.32;13.85;;;;;;;3.11;98.21;97463.38;5091766;28;20032;-60
2023/02/05 07:47:48;;;;;;;22.45;18.42;;;;;;;3.24;97.78;97471.59;5090838;28;20036;-60
2023/02/05 07:50:15;;;;;;;14.88;13.27;;;;;;;3.20;97.95;97475.19;5090451;28;20028;-62
2023/02/05 07:52:40;;;;;;;13.38;12.05;;;;;;;3.35;97.81;97484.25;5072152;28;20020;-70
2023/02/05 07:55:05;;;;;;;12.57;11.27;;;;;;;3.50;96.40;97481.09;5090393;28;20076;-70
2023/02/05 07:57:31;;;;;;;19.80;16.08;;;;;;;3.32;96.40;97482.59;5090044;28;20036;-70
2023/02/05 07:59:56;;;;;;;31.73;19.20;;;;;;;3.29;96.34;97493.13;5090019;28;20500;-69
2023/02/05 08:02:21;;;;;;;19.58;15.63;;;;;;;3.24;96.55;97506.28;5092597;28;20025;-70
2023/02/05 08:04:47;;;;;;;14.13;12.77;;;;;;;3.21;97.05;97502.94;5090353;28;20028;-70
2023/02/05 08:07:13;;;;;;;16.67;13.52;;;;;;;3.26;96.96;97503.63;5089947;28;20058;-70
2023/02/05 08:09:38;;;;;;;18.27;12.88;;;;;;;3.27;96.76;97494.94;5089959;28;20035;-59
2023/02/05 08:12:05;;;;;;;33.03;18.35;;;;;;;3.34;96.00;97506.81;5089516;28;20020;-61
2023/02/05 08:14:30;;;;;;;41.90;20.90;;;;;;;3.30;96.59;97498.25;5089310;28;20921;-61
2023/02/05 08:16:57;;;;;;;24.15;15.30;;;;;;;3.42;95.98;97493.53;5089998;28;20036;-62
2023/02/05 08:19:23;;;;;;;11.77;10.50;;;;;;;3.37;95.83;97496.28;5089965;28;20514;-61
2023/02/05 08:21:49;;;;;;;22.80;14.77;;;;;;;3.33;95.70;97484.28;5090244;28;20023;-63
2023/02/05 08:24:14;;;;;;;20.52;14.52;;;;;;;3.32;95.78;97490.41;5089646;28;20023;-62
2023/02/05 08:26:40;;;;;;;39.45;21.45;;;;;;;3.35;96.07;97484.25;5088365;28;20035;-62
2023/02/05 08:29:07;;;;;;;47.75;25.15;;;;;;;3.35;95.64;97487.69;5081772;28;20516;-68
2023/02/05 08:31:33;;;;;;;30.95;19.63;;;;;;;3.36;95.52;97472.94;5091805;28;20027;-64
2023/02/05 08:33:59;;;;;;;18.10;15.10;;;;;;;3.38;95.49;97468.53;5088770;28;20036;-64
2023/02/05 08:36:24;;;;;;;22.42;18.40;;;;;;;3.40;95.46;97462.34;5088837;28;20019;-64
2023/02/05 08:38:49;;;;;;;11.57;10.50;;;;;;;3.50;94.90;97465.47;5090226;28;20020;-64
2023/02/05 08:41:15;;;;;;;11.20;10.20;;;;;;;3.58;94.62;97457.38;5088670;28;20035;-64
2023/02/05 08:43:45;;;;;;;12.68;10.52;;;;;;;3.61;94.67;97451.22;5089238;28;20069;-64
2023/02/05 08:46:12;;;;;;;11.50;10.35;;;;;;;3.73;94.64;97462.06;5086888;28;20023;-63
2023/02/05 08:48:38;;;;;;;11.43;9.70;;;;;;;3.84;93.79;97460.78;5088275;28;20481;-63
2023/02/05 08:51:04;;;;;;;12.65;11.35;;;;;;;3.97;93.59;97454.22;5090637;28;20024;-62
2023/02/05 08:53:31;;;;;;;11.95;10.75;;;;;;;3.97;93.68;97443.81;5089686;28;20500;-63
2023/02/05 08:55:59;;;;;;;11.75;10.55;;;;;;;4.15;93.04;97442.25;5089810;28;20031;-61
2023/02/05 08:58:25;;;;;;;10.93;9.65;;;;;;;4.24;91.27;97448.03;5088633;28;20032;-63
2023/02/05 09:00:51;;;;;;;11.65;10.55;;;;;;;4.21;90.26;97454.19;5089054;28;20062;-63
2023/02/05 09:03:16;;;;;;;11.27;10.13;;;;;;;4.28;90.35;97450.44;5088557;28;20055;-63
2023/02/05 09:05:41;;;;;;;12.13;9.80;;;;;;;4.30;90.57;97445.19;5086696;28;20051;-63
2023/02/05 09:08:07;;;;;;;18.67;13.95;;;;;;;4.25;90.96;97440.13;5087639;28;20081;-61
2023/02/05 09:10:32;;;;;;;11.07;8.98;;;;;;;4.29;90.71;97444.31;5088394;28;20054;-65
2023/02/05 09:12:57;;;;;;;18.90;16.02;;;;;;;4.28;91.10;97436.56;5087934;28;20131;-66
2023/02/05 09:15:23;;;;;;;24.20;16.02;;;;;;;4.37;90.51;97438.81;5089584;28;20068;-67
2023/02/05 09:17:48;;;;;;;12.52;10.55;;;;;;;4.35;89.57;97448.44;5090361;28;20020;-65
2023/02/05 09:20:14;;;;;;;14.27;10.20;;;;;;;4.42;89.76;97449.06;5090119;28;20427;-66
2023/02/05 09:22:39;;;;;;;11.82;10.70;;;;;;;4.37;90.06;97438.81;5089451;28;20028;-66
2023/02/05 09:25:06;;;;;;;10.85;8.90;;;;;;;4.47;89.65;97436.69;5089996;28;20020;-67
2023/02/05 09:27:31;;;;;;;8.77;8.10;;;;;;;4.51;89.51;97446.06;5089957;28;20359;-64
2023/02/05 09:29:56;;;;;;;10.80;9.55;;;;;;;4.62;88.68;97445.63;5089977;28;20032;-68
2023/02/05 09:32:22;;;;;;;10.88;9.23;;;;;;;4.74;88.52;97439.06;5090745;28;20012;-66
2023/02/05 09:34:48;;;;;;;11.35;10.23;;;;;;;4.72;88.66;97457.41;5089890;28;20504;-66
2023/02/05 09:37:14;;;;;;;12.65;9.48;;;;;;;4.72;88.75;97454.81;5090304;28;20028;-67
2023/02/05 09:39:40;;;;;;;12.35;10.95;;;;;;;4.85;87.91;97447.31;5089976;28;20020;-67
2023/02/05 09:42:26;;;;;;;12.25;11.05;;;;;;;4.98;87.75;97441.63;5089864;28;20409;-67
2023/02/05 09:45:10;;;;;;;12.68;11.35;;;;;;;5.00;87.40;97451.06;5077546;28;20051;-66
2023/02/05 09:47:53;;;;;;;12.50;11.20;;;;;;;5.09;86.14;97454.22;5089747;28;20108;-63
2023/02/05 09:50:27;;;;;;;16.95;15.25;;;;;;;4.95;86.73;97452.16;5089882;28;20039;-74
2023/02/05 09:52:58;;;;;;;16.70;14.85;;;;;;;4.98;86.14;97462.50;5089593;28;20016;-74
2023/02/05 09:55:29;;;;;;;17.25;14.07;;;;;;;4.93;86.40;97460.06;5089908;28;20032;-74
2023/02/05 09:58:03;;;;;;;15.25;13.65;;;;;;;4.92;86.38;97463.59;5089931;28;20040;-74
2023/02/05 10:01:08;;;;;;;14.75;12.98;;;;;;;4.80;85.77;97457.13;5088615;28;20475;-75
2023/02/05 10:03:43;;;;;;;14.25;12.40;;;;;;;4.71;86.33;97454.88;5101653;28;20044;-75
2023/02/05 10:06:29;;;;;;;11.93;9.20;;;;;;;4.71;86.46;97460.06;5089466;28;20020;-66
2023/02/05 10:08:57;;;;;;;12.23;10.88;;;;;;;4.92;85.57;97454.91;5080201;28;20051;-66
2023/02/05 10:11:30;;;;;;;9.55;8.75;;;;;;;4.99;84.48;97451.13;5089175;28;20032;-66
2023/02/05 10:14:28;;;;;;;10.90;9.80;;;;;;;5.05;83.84;97456.09;5089940;28;20032;-66
2023/02/05 10:17:05;;;;;;;10.77;9.88;;;;;;;5.16;84.22;97456.47;5067923;28;20051;-66
2023/02/05 10:19:42;;;;;;;13.57;11.80;;;;;;;5.78;82.26;97470.41;5070697;28;20016;-67
2023/02/05 10:22:39;;;;;;;11.20;10.13;;;;;;;6.22;78.85;97461.50;5089661;28;20390;-66
2023/02/05 10:25:32;;;;;;;11.73;9.52;;;;;;;6.14;79.38;97464.47;5082043;28;20040;-66
2023/02/05 10:28:31;;;;;;;9.13;8.23;;;;;;;6.02;79.76;97458.03;5089046;28;20039;-61
2023/02/05 10:31:09;;;;;;;10.18;8.32;;;;;;;6.15;79.14;97447.88;5089797;28;20032;-61
2023/02/05 10:33:45;;;;;;;9.85;8.88;;;;;;;6.50;77.58;97445.34;5089200;28;20023;-61
2023/02/05 10:36:12;;;;;;;8.35;7.55;;;;;;;6.69;75.77;97423.50;5088657;28;20546;-61
2023/02/05 10:38:45;;;;;;;8.77;7.90;;;;;;;6.96;75.03;97431.78;5089494;28;20125;-61
2023/02/05 10:41:21;;;;;;;8.98;8.25;;;;;;;7.24;74.33;97429.53;5088725;28;20525;-61
2023/02/05 10:43:52;;;;;;;9.70;7.53;;;;;;;7.42;72.98;97423.38;5089028;28;20124;-61
2023/02/05 10:46:18;;;;;;;9.88;7.90;;;;;;;7.40;72.03;97412.09;5089041;28;20027;-60
2023/02/05 10:49:00;;;;;;;8.05;7.25;;;;;;;7.49;71.54;97420.41;5089330;28;20020;-61
2023/02/05 10:51:39;;;;;;;8.52;7.68;;;;;;;7.79;71.10;97414.47;5076648;28;20069;-60
2023/02/05 10:54:05;;;;;;;11.65;7.88;;;;;;;7.91;68.58;97413.81;5088729;28;20066;-61
2023/02/05 10:56:31;;;;;;;8.60;7.95;;;;;;;7.99;69.63;97411.63;5089664;28;20056;-60
2023/02/05 10:59:00;;;;;;;8.15;7.40;;;;;;;8.08;67.87;97406.81;5088859;28;20518;-60
2023/02/05 11:01:35;;;;;;;7.93;7.22;;;;;;;8.22;68.49;97399.00;5090445;28;20139;-61
2023/02/05 11:04:04;;;;;;;;;;;;;;;8.43;66.25;97396.97;5099775;28;20054;-60
2023/02/05 11:06:35;;;;;;;7.35;6.75;;;;;;;8.45;65.99;97383.75;5088949;28;20271;-60
2023/02/05 11:09:01;;;;;;;8.60;7.80;;;;;;;8.40;66.32;97388.41;5089328;28;20485;-60
2023/02/05 11:11:28;;;;;;;8.95;8.05;;;;;;;8.65;65.73;97381.78;5088469;28;20020;-60
2023/02/05 11:13:59;;;;;;;9.52;7.93;;;;;;;8.74;64.85;97368.16;5092790;28;20181;-60
2023/02/05 11:16:54;;;;;;;8.25;7.38;;;;;;;8.74;64.97;97355.03;5090737;28;20078;-61
2023/02/05 11:19:26;;;;;;;7.78;6.95;;;;;;;8.58;64.58;97355.03;5069037;28;20058;-61
2023/02/05 11:21:58;;;;;;;8.52;7.57;;;;;;;8.81;64.42;97358.97;5091063;28;20569;-61
2023/02/05 11:24:33;;;;;;;7.38;6.68;;;;;;;8.83;63.61;97350.97;5090887;28;20036;-72
2023/02/05 11:27:19;;;;;;;7.78;7.03;;;;;;;8.74;64.13;97342.72;5087047;28;20031;-61
2023/02/05 11:29:44;;;;;;;8.20;6.80;;;;;;;8.87;63.57;97339.38;5084859;28;20070;-62
2023/02/05 11:32:36;;;;;;;8.05;7.35;;;;;;;8.86;63.52;97328.03;5087582;28;20317;-62
2023/02/05 11:35:19;;;;;;;6.93;6.25;;;;;;;8.86;62.89;97324.56;5090134;28;20421;-61
2023/02/05 11:37:47;;;;;;;7.32;6.63;;;;;;;9.13;63.40;97339.59;5087915;28;20024;-61
2023/02/05 11:40:21;;;;;;;8.55;6.78;;;;;;;9.03;61.86;97331.44;5088984;28;20024;-61
2023/02/05 11:42:57;;;;;;;7.55;6.20;;;;;;;9.21;62.82;97339.16;5087456;28;20055;-63
2023/02/05 11:45:24;;;;;;;18.80;11.55;;;;;;;9.53;60.86;97342.44;5089021;28;20019;-65
2023/02/05 11:47:50;;;;;;;16.95;10.68;;;;;;;9.88;60.21;97354.31;5088802;28;20044;-66